sensor_id;sensor_type;location;lat;lon;timestamp;P1;durP1;ratioP1;P2;durP2;ratioP2
58784;SDS011;44557;51.862;19.378;2022-07-11T00:00:25;2.40;;;1.10;;
58784;SDS011;44557;51.862;19.378;2022-07-11T00:01:42;3.10;;;1.30;;
58784;SDS011;44557;51.862;19.378;2022-07-11T00:02:44;4.20;;;1.60;;
58784;SDS011;44557;51.862;19.378;2022-07-11T00:03:45;4.30;;;1.50;;
58784;SDS011;44557;51.862;19.378;2022-07-11T00:04:47;4.80;;;1.30;;
58784;SDS011;44557;51.862;19.378;2022-07-11T00:05:48;3.40;;;1.20;;
58784;SDS011;44557;51.862;19.378;2022-07-11T00:06:50;3.30;;;1.30;;
58784;SDS011;44557;51.862;19.378;2022-07-11T00:07:51;4.20;;;1.50;;
58784;SDS011;44557;51.862;19.378;2022-07-11T00:08:53;3.40;;;1.20;;
58784;SDS011;44557;51.862;19.378;2022-07-11T00:09:54;4.10;;;1.80;;
58784;SDS011;44557;51.862;19.378;2022-07-11T00:10:55;4.50;;;1.40;;
58784;SDS011;44557;51.862;19.378;2022-07-11T00:11:57;3.80;;;1.50;;
58784;SDS011;44557;51.862;19.378;2022-07-11T00:12:59;6.00;;;1.30;;
58784;SDS011;44557;51.862;19.378;2022-07-11T00:14:01;3.30;;;1.40;;
58784;SDS011;44557;51.862;19.378;2022-07-11T00:15:02;2.60;;;1.50;;
58784;SDS011;44557;51.862;19.378;2022-07-11T00:16:04;4.00;;;1.30;;
58784;SDS011;44557;51.862;19.378;2022-07-11T00:17:07;4.30;;;1.50;;
58784;SDS011;44557;51.862;19.378;2022-07-11T00:18:09;2.60;;;1.10;;
58784;SDS011;44557;51.862;19.378;2022-07-11T00:19:11;4.80;;;1.60;;
58784;SDS011;44557;51.862;19.378;2022-07-11T00:20:12;3.30;;;1.40;;
58784;SDS011;44557;51.862;19.378;2022-07-11T00:21:17;3.30;;;1.20;;
58784;SDS011;44557;51.862;19.378;2022-07-11T00:22:20;4.50;;;1.60;;
58784;SDS011;44557;51.862;19.378;2022-07-11T00:23:21;2.60;;;1.50;;
58784;SDS011;44557;51.862;19.378;2022-07-11T00:24:23;5.00;;;1.60;;
58784;SDS011;44557;51.862;19.378;2022-07-11T00:25:26;3.20;;;1.10;;
58784;SDS011;44557;51.862;19.378;2022-07-11T00:26:27;6.40;;;1.40;;
58784;SDS011;44557;51.862;19.378;2022-07-11T00:27:29;3.50;;;1.40;;
58784;SDS011;44557;51.862;19.378;2022-07-11T00:28:31;5.50;;;1.40;;
58784;SDS011;44557;51.862;19.378;2022-07-11T00:29:33;5.40;;;1.50;;
58784;SDS011;44557;51.862;19.378;2022-07-11T00:30:34;3.40;;;1.20;;
58784;SDS011;44557;51.862;19.378;2022-07-11T00:31:36;3.30;;;1.10;;
58784;SDS011;44557;51.862;19.378;2022-07-11T00:32:38;4.80;;;1.40;;
58784;SDS011;44557;51.862;19.378;2022-07-11T00:33:39;3.80;;;1.30;;
58784;SDS011;44557;51.862;19.378;2022-07-11T00:34:41;2.80;;;1.20;;
58784;SDS011;44557;51.862;19.378;2022-07-11T00:35:43;3.80;;;1.60;;
58784;SDS011;44557;51.862;19.378;2022-07-11T00:36:44;2.50;;;1.30;;
58784;SDS011;44557;51.862;19.378;2022-07-11T00:37:46;2.50;;;1.20;;
58784;SDS011;44557;51.862;19.378;2022-07-11T00:38:47;4.50;;;1.30;;
58784;SDS011;44557;51.862;19.378;2022-07-11T00:39:49;4.80;;;1.50;;
58784;SDS011;44557;51.862;19.378;2022-07-11T00:40:51;5.20;;;1.40;;
58784;SDS011;44557;51.862;19.378;2022-07-11T00:41:53;3.60;;;1.60;;
58784;SDS011;44557;51.862;19.378;2022-07-11T00:42:54;3.10;;;1.40;;
58784;SDS011;44557;51.862;19.378;2022-07-11T00:43:56;5.00;;;1.50;;
58784;SDS011;44557;51.862;19.378;2022-07-11T00:44:59;4.00;;;1.50;;
58784;SDS011;44557;51.862;19.378;2022-07-11T00:46:01;2.20;;;1.30;;
58784;SDS011;44557;51.862;19.378;2022-07-11T00:47:03;5.80;;;1.40;;
58784;SDS011;44557;51.862;19.378;2022-07-11T00:48:05;2.30;;;1.40;;
58784;SDS011;44557;51.862;19.378;2022-07-11T00:49:06;5.30;;;1.50;;
58784;SDS011;44557;51.862;19.378;2022-07-11T00:50:08;3.50;;;1.40;;
58784;SDS011;44557;51.862;19.378;2022-07-11T00:51:10;3.40;;;1.30;;
58784;SDS011;44557;51.862;19.378;2022-07-11T00:52:13;2.40;;;1.30;;
58784;SDS011;44557;51.862;19.378;2022-07-11T00:53:14;4.40;;;1.60;;
58784;SDS011;44557;51.862;19.378;2022-07-11T00:54:16;3.10;;;1.40;;
58784;SDS011;44557;51.862;19.378;2022-07-11T00:55:20;4.00;;;1.50;;
58784;SDS011;44557;51.862;19.378;2022-07-11T00:56:23;4.90;;;1.50;;
58784;SDS011;44557;51.862;19.378;2022-07-11T00:57:27;3.40;;;1.60;;
58784;SDS011;44557;51.862;19.378;2022-07-11T00:58:28;3.90;;;1.50;;
58784;SDS011;44557;51.862;19.378;2022-07-11T00:59:31;4.70;;;1.40;;
58784;SDS011;44557;51.862;19.378;2022-07-11T01:00:33;5.30;;;1.30;;
58784;SDS011;44557;51.862;19.378;2022-07-11T01:01:36;2.80;;;1.40;;
58784;SDS011;44557;51.862;19.378;2022-07-11T01:02:39;3.80;;;1.60;;
58784;SDS011;44557;51.862;19.378;2022-07-11T01:03:41;3.50;;;1.70;;
58784;SDS011;44557;51.862;19.378;2022-07-11T01:04:45;4.50;;;1.30;;
58784;SDS011;44557;51.862;19.378;2022-07-11T01:05:46;3.50;;;1.40;;
58784;SDS011;44557;51.862;19.378;2022-07-11T01:06:48;3.00;;;1.60;;
58784;SDS011;44557;51.862;19.378;2022-07-11T01:07:50;3.50;;;1.70;;
58784;SDS011;44557;51.862;19.378;2022-07-11T01:08:51;2.40;;;1.30;;
58784;SDS011;44557;51.862;19.378;2022-07-11T01:09:53;4.20;;;1.50;;
58784;SDS011;44557;51.862;19.378;2022-07-11T01:10:54;2.90;;;1.40;;
58784;SDS011;44557;51.862;19.378;2022-07-11T01:11:56;6.10;;;1.60;;
58784;SDS011;44557;51.862;19.378;2022-07-11T01:12:59;3.90;;;1.50;;
58784;SDS011;44557;51.862;19.378;2022-07-11T01:14:00;3.10;;;1.60;;
58784;SDS011;44557;51.862;19.378;2022-07-11T01:15:02;3.10;;;1.50;;
58784;SDS011;44557;51.862;19.378;2022-07-11T01:16:07;4.40;;;1.50;;
58784;SDS011;44557;51.862;19.378;2022-07-11T01:17:10;3.00;;;1.40;;
58784;SDS011;44557;51.862;19.378;2022-07-11T01:18:12;7.40;;;1.80;;
58784;SDS011;44557;51.862;19.378;2022-07-11T01:19:13;6.60;;;1.60;;
58784;SDS011;44557;51.862;19.378;2022-07-11T01:20:15;4.50;;;1.50;;
58784;SDS011;44557;51.862;19.378;2022-07-11T01:21:17;4.60;;;1.50;;
58784;SDS011;44557;51.862;19.378;2022-07-11T01:22:28;5.70;;;1.70;;
58784;SDS011;44557;51.862;19.378;2022-07-11T01:23:31;2.90;;;1.50;;
58784;SDS011;44557;51.862;19.378;2022-07-11T01:24:33;5.00;;;1.70;;
58784;SDS011;44557;51.862;19.378;2022-07-11T01:25:34;4.20;;;1.70;;
58784;SDS011;44557;51.862;19.378;2022-07-11T01:26:37;4.20;;;1.50;;
58784;SDS011;44557;51.862;19.378;2022-07-11T01:27:40;2.60;;;1.40;;
58784;SDS011;44557;51.862;19.378;2022-07-11T01:28:42;4.00;;;1.50;;
58784;SDS011;44557;51.862;19.378;2022-07-11T01:29:49;5.90;;;1.70;;
58784;SDS011;44557;51.862;19.378;2022-07-11T01:30:52;3.70;;;1.60;;
58784;SDS011;44557;51.862;19.378;2022-07-11T01:31:54;3.50;;;1.50;;
58784;SDS011;44557;51.862;19.378;2022-07-11T01:32:55;4.10;;;1.50;;
58784;SDS011;44557;51.862;19.378;2022-07-11T01:33:57;6.40;;;1.90;;
58784;SDS011;44557;51.862;19.378;2022-07-11T01:34:59;3.70;;;2.10;;
58784;SDS011;44557;51.862;19.378;2022-07-11T01:36:00;4.20;;;1.90;;
58784;SDS011;44557;51.862;19.378;2022-07-11T01:37:03;4.80;;;1.60;;
58784;SDS011;44557;51.862;19.378;2022-07-11T01:38:05;5.90;;;1.70;;
58784;SDS011;44557;51.862;19.378;2022-07-11T01:39:06;7.20;;;2.20;;
58784;SDS011;44557;51.862;19.378;2022-07-11T01:40:08;4.20;;;1.40;;
58784;SDS011;44557;51.862;19.378;2022-07-11T01:41:10;4.00;;;1.40;;
58784;SDS011;44557;51.862;19.378;2022-07-11T01:42:11;6.90;;;1.80;;
58784;SDS011;44557;51.862;19.378;2022-07-11T01:43:13;5.20;;;1.70;;
58784;SDS011;44557;51.862;19.378;2022-07-11T01:44:16;3.80;;;1.70;;
58784;SDS011;44557;51.862;19.378;2022-07-11T01:45:17;4.60;;;1.50;;
58784;SDS011;44557;51.862;19.378;2022-07-11T01:46:19;4.40;;;1.70;;
58784;SDS011;44557;51.862;19.378;2022-07-11T01:47:22;2.80;;;1.60;;
58784;SDS011;44557;51.862;19.378;2022-07-11T01:48:24;4.30;;;1.80;;
58784;SDS011;44557;51.862;19.378;2022-07-11T01:49:25;6.10;;;1.80;;
58784;SDS011;44557;51.862;19.378;2022-07-11T01:50:30;3.20;;;1.70;;
58784;SDS011;44557;51.862;19.378;2022-07-11T01:51:32;4.30;;;1.60;;
58784;SDS011;44557;51.862;19.378;2022-07-11T01:52:35;2.80;;;1.60;;
58784;SDS011;44557;51.862;19.378;2022-07-11T01:53:37;2.30;;;1.60;;
58784;SDS011;44557;51.862;19.378;2022-07-11T01:54:39;5.30;;;1.50;;
58784;SDS011;44557;51.862;19.378;2022-07-11T01:55:40;4.30;;;1.70;;
58784;SDS011;44557;51.862;19.378;2022-07-11T01:56:42;4.70;;;1.80;;
58784;SDS011;44557;51.862;19.378;2022-07-11T01:57:43;4.30;;;1.80;;
58784;SDS011;44557;51.862;19.378;2022-07-11T01:58:45;6.00;;;1.80;;
58784;SDS011;44557;51.862;19.378;2022-07-11T01:59:46;4.70;;;1.90;;
58784;SDS011;44557;51.862;19.378;2022-07-11T02:00:48;5.50;;;1.70;;
58784;SDS011;44557;51.862;19.378;2022-07-11T02:01:50;3.70;;;1.70;;
58784;SDS011;44557;51.862;19.378;2022-07-11T02:02:51;4.20;;;1.80;;
58784;SDS011;44557;51.862;19.378;2022-07-11T02:03:53;3.10;;;1.80;;
58784;SDS011;44557;51.862;19.378;2022-07-11T02:04:56;7.10;;;1.70;;
58784;SDS011;44557;51.862;19.378;2022-07-11T02:05:57;4.80;;;1.60;;
58784;SDS011;44557;51.862;19.378;2022-07-11T02:06:59;4.50;;;1.70;;
58784;SDS011;44557;51.862;19.378;2022-07-11T02:08:00;5.10;;;2.00;;
58784;SDS011;44557;51.862;19.378;2022-07-11T02:09:14;4.70;;;1.80;;
58784;SDS011;44557;51.862;19.378;2022-07-11T02:10:15;3.70;;;1.80;;
58784;SDS011;44557;51.862;19.378;2022-07-11T02:11:17;3.60;;;1.80;;
58784;SDS011;44557;51.862;19.378;2022-07-11T02:12:18;4.40;;;1.70;;
58784;SDS011;44557;51.862;19.378;2022-07-11T02:13:20;4.50;;;1.70;;
58784;SDS011;44557;51.862;19.378;2022-07-11T02:14:24;2.90;;;1.50;;
58784;SDS011;44557;51.862;19.378;2022-07-11T02:15:26;5.60;;;1.80;;
58784;SDS011;44557;51.862;19.378;2022-07-11T02:16:29;4.60;;;1.50;;
58784;SDS011;44557;51.862;19.378;2022-07-11T02:17:31;4.70;;;1.80;;
58784;SDS011;44557;51.862;19.378;2022-07-11T02:18:33;3.30;;;1.60;;
58784;SDS011;44557;51.862;19.378;2022-07-11T02:19:35;4.30;;;1.60;;
58784;SDS011;44557;51.862;19.378;2022-07-11T02:20:37;5.00;;;1.50;;
58784;SDS011;44557;51.862;19.378;2022-07-11T02:21:41;6.30;;;1.70;;
58784;SDS011;44557;51.862;19.378;2022-07-11T02:22:43;3.80;;;1.80;;
58784;SDS011;44557;51.862;19.378;2022-07-11T02:23:45;3.50;;;1.60;;
58784;SDS011;44557;51.862;19.378;2022-07-11T02:24:47;7.50;;;1.90;;
58784;SDS011;44557;51.862;19.378;2022-07-11T02:25:49;7.10;;;1.70;;
58784;SDS011;44557;51.862;19.378;2022-07-11T02:26:51;6.00;;;1.70;;
58784;SDS011;44557;51.862;19.378;2022-07-11T02:27:52;4.60;;;1.60;;
58784;SDS011;44557;51.862;19.378;2022-07-11T02:28:54;4.00;;;1.60;;
58784;SDS011;44557;51.862;19.378;2022-07-11T02:29:56;5.80;;;1.70;;
58784;SDS011;44557;51.862;19.378;2022-07-11T02:30:57;7.40;;;2.00;;
58784;SDS011;44557;51.862;19.378;2022-07-11T02:31:59;5.60;;;1.70;;
58784;SDS011;44557;51.862;19.378;2022-07-11T02:33:01;5.90;;;1.70;;
58784;SDS011;44557;51.862;19.378;2022-07-11T02:34:03;2.70;;;1.50;;
58784;SDS011;44557;51.862;19.378;2022-07-11T02:35:06;5.30;;;2.20;;
58784;SDS011;44557;51.862;19.378;2022-07-11T02:36:08;3.50;;;1.70;;
58784;SDS011;44557;51.862;19.378;2022-07-11T02:37:09;4.70;;;1.60;;
58784;SDS011;44557;51.862;19.378;2022-07-11T02:38:12;5.00;;;1.80;;
58784;SDS011;44557;51.862;19.378;2022-07-11T02:39:16;5.10;;;1.70;;
58784;SDS011;44557;51.862;19.378;2022-07-11T02:40:17;7.10;;;2.10;;
58784;SDS011;44557;51.862;19.378;2022-07-11T02:41:19;5.00;;;2.10;;
58784;SDS011;44557;51.862;19.378;2022-07-11T02:42:21;6.70;;;2.00;;
58784;SDS011;44557;51.862;19.378;2022-07-11T02:43:22;3.80;;;2.20;;
58784;SDS011;44557;51.862;19.378;2022-07-11T02:44:24;4.10;;;2.20;;
58784;SDS011;44557;51.862;19.378;2022-07-11T02:45:25;4.50;;;2.00;;
58784;SDS011;44557;51.862;19.378;2022-07-11T02:46:27;5.10;;;1.70;;
58784;SDS011;44557;51.862;19.378;2022-07-11T02:47:28;4.10;;;1.70;;
58784;SDS011;44557;51.862;19.378;2022-07-11T02:48:30;6.60;;;1.80;;
58784;SDS011;44557;51.862;19.378;2022-07-11T02:49:33;6.90;;;2.20;;
58784;SDS011;44557;51.862;19.378;2022-07-11T02:50:34;4.60;;;2.30;;
58784;SDS011;44557;51.862;19.378;2022-07-11T02:51:36;4.50;;;1.80;;
58784;SDS011;44557;51.862;19.378;2022-07-11T02:52:38;5.50;;;1.90;;
58784;SDS011;44557;51.862;19.378;2022-07-11T02:53:40;6.20;;;2.00;;
58784;SDS011;44557;51.862;19.378;2022-07-11T02:54:41;4.70;;;1.80;;
58784;SDS011;44557;51.862;19.378;2022-07-11T02:55:43;5.70;;;1.90;;
58784;SDS011;44557;51.862;19.378;2022-07-11T02:56:45;4.10;;;1.80;;
58784;SDS011;44557;51.862;19.378;2022-07-11T02:57:47;6.20;;;1.80;;
58784;SDS011;44557;51.862;19.378;2022-07-11T02:58:50;4.00;;;1.80;;
58784;SDS011;44557;51.862;19.378;2022-07-11T02:59:52;5.50;;;2.00;;
58784;SDS011;44557;51.862;19.378;2022-07-11T03:00:54;4.50;;;2.30;;
58784;SDS011;44557;51.862;19.378;2022-07-11T03:01:55;5.00;;;1.70;;
58784;SDS011;44557;51.862;19.378;2022-07-11T03:02:57;7.80;;;2.30;;
58784;SDS011;44557;51.862;19.378;2022-07-11T03:03:58;5.60;;;2.00;;
58784;SDS011;44557;51.862;19.378;2022-07-11T03:05:00;4.50;;;2.20;;
58784;SDS011;44557;51.862;19.378;2022-07-11T03:06:01;7.00;;;2.40;;
58784;SDS011;44557;51.862;19.378;2022-07-11T03:07:03;5.90;;;2.30;;
58784;SDS011;44557;51.862;19.378;2022-07-11T03:08:06;6.30;;;2.20;;
58784;SDS011;44557;51.862;19.378;2022-07-11T03:09:08;4.90;;;2.10;;
58784;SDS011;44557;51.862;19.378;2022-07-11T03:10:10;6.70;;;2.40;;
58784;SDS011;44557;51.862;19.378;2022-07-11T03:11:12;3.80;;;2.20;;
58784;SDS011;44557;51.862;19.378;2022-07-11T03:12:13;9.20;;;2.40;;
58784;SDS011;44557;51.862;19.378;2022-07-11T03:13:15;8.50;;;2.40;;
58784;SDS011;44557;51.862;19.378;2022-07-11T03:14:17;6.40;;;2.50;;
58784;SDS011;44557;51.862;19.378;2022-07-11T03:15:19;5.30;;;2.30;;
58784;SDS011;44557;51.862;19.378;2022-07-11T03:16:22;8.90;;;2.60;;
58784;SDS011;44557;51.862;19.378;2022-07-11T03:17:23;8.20;;;2.30;;
58784;SDS011;44557;51.862;19.378;2022-07-11T03:18:25;6.40;;;2.40;;
58784;SDS011;44557;51.862;19.378;2022-07-11T03:19:27;6.10;;;2.10;;
58784;SDS011;44557;51.862;19.378;2022-07-11T03:20:28;5.10;;;2.10;;
58784;SDS011;44557;51.862;19.378;2022-07-11T03:21:30;6.50;;;2.20;;
58784;SDS011;44557;51.862;19.378;2022-07-11T03:22:31;6.80;;;2.50;;
58784;SDS011;44557;51.862;19.378;2022-07-11T03:23:33;5.50;;;2.30;;
58784;SDS011;44557;51.862;19.378;2022-07-11T03:24:35;5.60;;;2.40;;
58784;SDS011;44557;51.862;19.378;2022-07-11T03:25:38;6.30;;;2.60;;
58784;SDS011;44557;51.862;19.378;2022-07-11T03:26:40;7.70;;;2.40;;
58784;SDS011;44557;51.862;19.378;2022-07-11T03:27:41;5.80;;;2.30;;
58784;SDS011;44557;51.862;19.378;2022-07-11T03:28:43;4.60;;;2.30;;
58784;SDS011;44557;51.862;19.378;2022-07-11T03:29:45;5.20;;;2.20;;
58784;SDS011;44557;51.862;19.378;2022-07-11T03:30:47;4.90;;;2.30;;
58784;SDS011;44557;51.862;19.378;2022-07-11T03:31:49;6.10;;;2.50;;
58784;SDS011;44557;51.862;19.378;2022-07-11T03:32:51;6.20;;;2.20;;
58784;SDS011;44557;51.862;19.378;2022-07-11T03:33:52;6.60;;;2.50;;
58784;SDS011;44557;51.862;19.378;2022-07-11T03:34:53;5.40;;;2.80;;
58784;SDS011;44557;51.862;19.378;2022-07-11T03:36:14;6.20;;;2.60;;
58784;SDS011;44557;51.862;19.378;2022-07-11T03:37:15;5.60;;;3.00;;
58784;SDS011;44557;51.862;19.378;2022-07-11T03:38:17;6.80;;;2.80;;
58784;SDS011;44557;51.862;19.378;2022-07-11T03:39:20;6.00;;;2.80;;
58784;SDS011;44557;51.862;19.378;2022-07-11T03:40:24;9.00;;;3.00;;
58784;SDS011;44557;51.862;19.378;2022-07-11T03:41:26;6.90;;;2.30;;
58784;SDS011;44557;51.862;19.378;2022-07-11T03:42:28;5.80;;;2.30;;
58784;SDS011;44557;51.862;19.378;2022-07-11T03:43:30;7.80;;;2.60;;
58784;SDS011;44557;51.862;19.378;2022-07-11T03:44:31;7.70;;;2.60;;
58784;SDS011;44557;51.862;19.378;2022-07-11T03:45:33;6.90;;;2.50;;
58784;SDS011;44557;51.862;19.378;2022-07-11T03:46:35;6.90;;;2.50;;
58784;SDS011;44557;51.862;19.378;2022-07-11T03:47:37;6.20;;;2.80;;
58784;SDS011;44557;51.862;19.378;2022-07-11T03:48:38;6.50;;;2.60;;
58784;SDS011;44557;51.862;19.378;2022-07-11T03:49:40;5.30;;;2.50;;
58784;SDS011;44557;51.862;19.378;2022-07-11T03:50:41;6.00;;;2.50;;
58784;SDS011;44557;51.862;19.378;2022-07-11T03:51:43;5.40;;;2.40;;
58784;SDS011;44557;51.862;19.378;2022-07-11T03:52:45;6.10;;;2.80;;
58784;SDS011;44557;51.862;19.378;2022-07-11T03:53:46;7.40;;;2.80;;
58784;SDS011;44557;51.862;19.378;2022-07-11T03:54:48;5.90;;;2.70;;
58784;SDS011;44557;51.862;19.378;2022-07-11T03:55:49;5.10;;;2.30;;
58784;SDS011;44557;51.862;19.378;2022-07-11T03:56:51;5.40;;;2.60;;
58784;SDS011;44557;51.862;19.378;2022-07-11T03:57:53;4.30;;;2.40;;
58784;SDS011;44557;51.862;19.378;2022-07-11T03:58:56;5.70;;;2.40;;
58784;SDS011;44557;51.862;19.378;2022-07-11T03:59:57;4.40;;;2.50;;
58784;SDS011;44557;51.862;19.378;2022-07-11T04:00:59;7.50;;;3.10;;
58784;SDS011;44557;51.862;19.378;2022-07-11T04:02:01;4.90;;;2.40;;
58784;SDS011;44557;51.862;19.378;2022-07-11T04:03:02;5.80;;;2.80;;
58784;SDS011;44557;51.862;19.378;2022-07-11T04:04:04;5.80;;;2.50;;
58784;SDS011;44557;51.862;19.378;2022-07-11T04:05:09;5.80;;;2.60;;
58784;SDS011;44557;51.862;19.378;2022-07-11T04:06:11;4.80;;;2.60;;
58784;SDS011;44557;51.862;19.378;2022-07-11T04:07:12;4.70;;;2.50;;
58784;SDS011;44557;51.862;19.378;2022-07-11T04:08:14;5.20;;;2.60;;
58784;SDS011;44557;51.862;19.378;2022-07-11T04:09:17;7.20;;;2.70;;
58784;SDS011;44557;51.862;19.378;2022-07-11T04:10:18;5.80;;;2.40;;
58784;SDS011;44557;51.862;19.378;2022-07-11T04:11:20;10.50;;;3.50;;
58784;SDS011;44557;51.862;19.378;2022-07-11T04:12:21;6.90;;;3.00;;
58784;SDS011;44557;51.862;19.378;2022-07-11T04:13:24;6.60;;;2.60;;
58784;SDS011;44557;51.862;19.378;2022-07-11T04:14:26;6.10;;;2.50;;
58784;SDS011;44557;51.862;19.378;2022-07-11T04:15:27;8.30;;;2.70;;
58784;SDS011;44557;51.862;19.378;2022-07-11T04:16:29;8.90;;;2.80;;
58784;SDS011;44557;51.862;19.378;2022-07-11T04:17:31;8.00;;;2.40;;
58784;SDS011;44557;51.862;19.378;2022-07-11T04:18:32;7.40;;;2.80;;
58784;SDS011;44557;51.862;19.378;2022-07-11T04:19:34;5.20;;;2.60;;
58784;SDS011;44557;51.862;19.378;2022-07-11T04:20:36;6.60;;;2.50;;
58784;SDS011;44557;51.862;19.378;2022-07-11T04:21:37;7.80;;;2.90;;
58784;SDS011;44557;51.862;19.378;2022-07-11T04:22:38;8.20;;;2.80;;
58784;SDS011;44557;51.862;19.378;2022-07-11T04:23:40;5.00;;;2.30;;
58784;SDS011;44557;51.862;19.378;2022-07-11T04:24:41;6.30;;;2.70;;
58784;SDS011;44557;51.862;19.378;2022-07-11T04:25:43;5.10;;;2.40;;
58784;SDS011;44557;51.862;19.378;2022-07-11T04:26:45;7.10;;;2.60;;
58784;SDS011;44557;51.862;19.378;2022-07-11T04:27:46;9.60;;;2.90;;
58784;SDS011;44557;51.862;19.378;2022-07-11T04:28:48;6.60;;;2.70;;
58784;SDS011;44557;51.862;19.378;2022-07-11T04:29:49;6.40;;;2.70;;
58784;SDS011;44557;51.862;19.378;2022-07-11T04:30:51;6.10;;;2.70;;
58784;SDS011;44557;51.862;19.378;2022-07-11T04:31:52;6.90;;;2.70;;
58784;SDS011;44557;51.862;19.378;2022-07-11T04:32:54;5.70;;;2.30;;
58784;SDS011;44557;51.862;19.378;2022-07-11T04:33:57;6.00;;;2.50;;
58784;SDS011;44557;51.862;19.378;2022-07-11T04:34:59;7.80;;;2.50;;
58784;SDS011;44557;51.862;19.378;2022-07-11T04:36:00;6.40;;;2.80;;
58784;SDS011;44557;51.862;19.378;2022-07-11T04:37:02;6.30;;;2.50;;
58784;SDS011;44557;51.862;19.378;2022-07-11T04:38:03;7.60;;;2.70;;
58784;SDS011;44557;51.862;19.378;2022-07-11T04:39:05;8.90;;;2.80;;
58784;SDS011;44557;51.862;19.378;2022-07-11T04:40:06;5.70;;;2.60;;
58784;SDS011;44557;51.862;19.378;2022-07-11T04:41:08;7.80;;;2.60;;
58784;SDS011;44557;51.862;19.378;2022-07-11T04:42:10;6.00;;;2.80;;
58784;SDS011;44557;51.862;19.378;2022-07-11T04:43:11;8.50;;;2.70;;
58784;SDS011;44557;51.862;19.378;2022-07-11T04:44:13;10.70;;;3.00;;
58784;SDS011;44557;51.862;19.378;2022-07-11T04:45:14;8.50;;;2.70;;
58784;SDS011;44557;51.862;19.378;2022-07-11T04:46:16;5.10;;;2.50;;
58784;SDS011;44557;51.862;19.378;2022-07-11T04:47:17;5.60;;;2.40;;
58784;SDS011;44557;51.862;19.378;2022-07-11T04:48:20;6.70;;;2.70;;
58784;SDS011;44557;51.862;19.378;2022-07-11T04:49:21;7.00;;;2.70;;
58784;SDS011;44557;51.862;19.378;2022-07-11T04:50:23;6.60;;;2.80;;
58784;SDS011;44557;51.862;19.378;2022-07-11T04:51:24;7.90;;;2.70;;
58784;SDS011;44557;51.862;19.378;2022-07-11T04:52:27;6.80;;;2.60;;
58784;SDS011;44557;51.862;19.378;2022-07-11T04:53:28;8.70;;;2.60;;
58784;SDS011;44557;51.862;19.378;2022-07-11T04:54:30;6.90;;;2.50;;
58784;SDS011;44557;51.862;19.378;2022-07-11T04:55:31;7.60;;;2.70;;
58784;SDS011;44557;51.862;19.378;2022-07-11T04:56:33;5.10;;;2.70;;
58784;SDS011;44557;51.862;19.378;2022-07-11T04:57:35;5.50;;;2.50;;
58784;SDS011;44557;51.862;19.378;2022-07-11T04:58:36;6.20;;;2.60;;
58784;SDS011;44557;51.862;19.378;2022-07-11T04:59:38;6.90;;;2.50;;
58784;SDS011;44557;51.862;19.378;2022-07-11T05:00:40;7.90;;;2.60;;
58784;SDS011;44557;51.862;19.378;2022-07-11T05:01:42;9.40;;;2.40;;
58784;SDS011;44557;51.862;19.378;2022-07-11T05:02:43;7.50;;;2.80;;
58784;SDS011;44557;51.862;19.378;2022-07-11T05:03:45;6.70;;;2.70;;
58784;SDS011;44557;51.862;19.378;2022-07-11T05:04:47;8.60;;;2.90;;
58784;SDS011;44557;51.862;19.378;2022-07-11T05:05:49;9.50;;;2.70;;
58784;SDS011;44557;51.862;19.378;2022-07-11T05:06:51;7.20;;;2.50;;
58784;SDS011;44557;51.862;19.378;2022-07-11T05:07:53;6.40;;;2.50;;
58784;SDS011;44557;51.862;19.378;2022-07-11T05:08:54;7.30;;;2.40;;
58784;SDS011;44557;51.862;19.378;2022-07-11T05:09:56;6.70;;;2.40;;
58784;SDS011;44557;51.862;19.378;2022-07-11T05:10:58;6.60;;;2.50;;
58784;SDS011;44557;51.862;19.378;2022-07-11T05:12:00;5.80;;;2.20;;
58784;SDS011;44557;51.862;19.378;2022-07-11T05:13:02;9.00;;;2.70;;
58784;SDS011;44557;51.862;19.378;2022-07-11T05:14:04;6.50;;;2.80;;
58784;SDS011;44557;51.862;19.378;2022-07-11T05:15:05;6.10;;;2.20;;
58784;SDS011;44557;51.862;19.378;2022-07-11T05:16:08;7.30;;;2.60;;
58784;SDS011;44557;51.862;19.378;2022-07-11T05:17:09;8.80;;;2.40;;
58784;SDS011;44557;51.862;19.378;2022-07-11T05:18:11;7.70;;;2.60;;
58784;SDS011;44557;51.862;19.378;2022-07-11T05:19:13;7.80;;;2.10;;
58784;SDS011;44557;51.862;19.378;2022-07-11T05:20:14;6.90;;;2.50;;
58784;SDS011;44557;51.862;19.378;2022-07-11T05:21:16;6.60;;;2.20;;
58784;SDS011;44557;51.862;19.378;2022-07-11T05:22:23;4.80;;;2.00;;
58784;SDS011;44557;51.862;19.378;2022-07-11T05:23:24;7.70;;;2.30;;
58784;SDS011;44557;51.862;19.378;2022-07-11T05:24:26;6.60;;;2.50;;
58784;SDS011;44557;51.862;19.378;2022-07-11T05:25:27;4.30;;;2.10;;
58784;SDS011;44557;51.862;19.378;2022-07-11T05:26:29;5.50;;;2.10;;
58784;SDS011;44557;51.862;19.378;2022-07-11T05:27:30;8.60;;;2.40;;
58784;SDS011;44557;51.862;19.378;2022-07-11T05:28:32;6.80;;;2.20;;
58784;SDS011;44557;51.862;19.378;2022-07-11T05:29:33;8.60;;;2.40;;
58784;SDS011;44557;51.862;19.378;2022-07-11T05:30:35;6.30;;;2.10;;
58784;SDS011;44557;51.862;19.378;2022-07-11T05:31:37;8.00;;;2.70;;
58784;SDS011;44557;51.862;19.378;2022-07-11T05:32:38;7.30;;;2.10;;
58784;SDS011;44557;51.862;19.378;2022-07-11T05:33:40;10.20;;;2.30;;
58784;SDS011;44557;51.862;19.378;2022-07-11T05:34:42;6.20;;;2.10;;
58784;SDS011;44557;51.862;19.378;2022-07-11T05:35:43;7.80;;;2.00;;
58784;SDS011;44557;51.862;19.378;2022-07-11T05:36:45;7.30;;;2.40;;
58784;SDS011;44557;51.862;19.378;2022-07-11T05:37:46;5.90;;;2.20;;
58784;SDS011;44557;51.862;19.378;2022-07-11T05:38:48;8.50;;;2.30;;
58784;SDS011;44557;51.862;19.378;2022-07-11T05:39:50;6.50;;;2.20;;
58784;SDS011;44557;51.862;19.378;2022-07-11T05:40:52;6.20;;;2.30;;
58784;SDS011;44557;51.862;19.378;2022-07-11T05:41:54;5.30;;;2.30;;
58784;SDS011;44557;51.862;19.378;2022-07-11T05:42:56;7.40;;;2.20;;
58784;SDS011;44557;51.862;19.378;2022-07-11T05:43:58;7.20;;;2.50;;
58784;SDS011;44557;51.862;19.378;2022-07-11T05:44:59;8.00;;;2.50;;
58784;SDS011;44557;51.862;19.378;2022-07-11T05:46:04;6.70;;;2.70;;
58784;SDS011;44557;51.862;19.378;2022-07-11T05:47:06;5.00;;;2.10;;
58784;SDS011;44557;51.862;19.378;2022-07-11T05:48:08;6.40;;;2.00;;
58784;SDS011;44557;51.862;19.378;2022-07-11T05:49:10;7.70;;;2.40;;
58784;SDS011;44557;51.862;19.378;2022-07-11T05:50:11;9.70;;;2.90;;
58784;SDS011;44557;51.862;19.378;2022-07-11T05:51:13;6.50;;;2.30;;
58784;SDS011;44557;51.862;19.378;2022-07-11T05:52:17;6.10;;;2.50;;
58784;SDS011;44557;51.862;19.378;2022-07-11T05:53:19;8.40;;;2.40;;
58784;SDS011;44557;51.862;19.378;2022-07-11T05:54:21;8.00;;;3.80;;
58784;SDS011;44557;51.862;19.378;2022-07-11T05:55:23;7.00;;;2.40;;
58784;SDS011;44557;51.862;19.378;2022-07-11T05:56:25;6.30;;;2.30;;
58784;SDS011;44557;51.862;19.378;2022-07-11T05:57:26;6.40;;;2.50;;
58784;SDS011;44557;51.862;19.378;2022-07-11T05:58:28;6.90;;;2.30;;
58784;SDS011;44557;51.862;19.378;2022-07-11T05:59:30;5.50;;;2.60;;
58784;SDS011;44557;51.862;19.378;2022-07-11T06:00:31;10.00;;;2.60;;
58784;SDS011;44557;51.862;19.378;2022-07-11T06:01:33;5.80;;;2.40;;
58784;SDS011;44557;51.862;19.378;2022-07-11T06:02:36;7.10;;;2.30;;
58784;SDS011;44557;51.862;19.378;2022-07-11T06:03:37;7.20;;;2.50;;
58784;SDS011;44557;51.862;19.378;2022-07-11T06:04:39;9.20;;;3.10;;
58784;SDS011;44557;51.862;19.378;2022-07-11T06:05:41;7.30;;;2.70;;
58784;SDS011;44557;51.862;19.378;2022-07-11T06:06:42;6.00;;;2.80;;
58784;SDS011;44557;51.862;19.378;2022-07-11T06:07:44;5.60;;;2.40;;